createdAt,value
2023-01-20T00:02:00.114Z,5.81
2023-01-20T00:04:26.650Z,5.78
2023-01-20T00:06:53.154Z,5.97
2023-01-20T00:09:19.810Z,5.85
2023-01-20T00:11:46.545Z,5.68
2023-01-20T00:14:13.501Z,5.75
2023-01-20T00:16:39.978Z,6.01
2023-01-20T00:19:06.628Z,5.92
2023-01-20T00:21:35.093Z,6.03
2023-01-20T00:24:01.979Z,5.89
2023-01-20T00:26:28.458Z,5.73
2023-01-20T00:28:55.769Z,5.20
2023-01-20T00:31:25.709Z,5.05
2023-01-20T00:33:54.453Z,5.29
2023-01-20T00:36:22.910Z,4.54
2023-01-20T00:38:49.749Z,4.32
2023-01-20T00:41:17.267Z,5.31
2023-01-20T00:43:44.464Z,5.00
2023-01-20T00:46:11.711Z,4.40
2023-01-20T00:48:38.528Z,4.35
2023-01-20T00:51:05.969Z,4.49
2023-01-20T00:53:33.051Z,4.26
2023-01-20T00:55:59.761Z,4.37
2023-01-20T00:58:26.623Z,4.16
2023-01-20T01:00:55.230Z,4.30
2023-01-20T01:03:22.072Z,4.34
2023-01-20T01:05:48.759Z,4.36
2023-01-20T01:08:15.276Z,3.74
2023-01-20T01:10:41.827Z,4.29
2023-01-20T01:13:08.847Z,4.59
2023-01-20T01:15:35.631Z,5.10
2023-01-20T01:18:03.044Z,3.82
2023-01-20T01:20:30.205Z,4.40
2023-01-20T01:22:56.785Z,4.58
2023-01-20T01:25:23.699Z,4.92
2023-01-20T01:27:50.256Z,4.73
2023-01-20T01:30:16.990Z,4.15
2023-01-20T01:32:43.521Z,4.42
2023-01-20T01:35:10.056Z,3.53
2023-01-20T01:37:36.633Z,4.24
2023-01-20T01:40:03.393Z,3.96
2023-01-20T01:42:30.223Z,4.28
2023-01-20T01:45:12.801Z,4.62
2023-01-20T01:47:53.405Z,4.43
2023-01-20T01:50:22.712Z,3.98
2023-01-20T01:52:53.426Z,3.83
2023-01-20T01:55:21.533Z,3.79
2023-01-20T01:57:49.343Z,3.92
2023-01-20T02:00:16.442Z,4.23
2023-01-20T02:02:44.172Z,3.78
2023-01-20T02:05:12.742Z,3.83
2023-01-20T02:07:39.760Z,4.29
2023-01-20T02:10:06.813Z,4.37
2023-01-20T02:12:33.545Z,4.19
2023-01-20T02:15:02.043Z,3.86
2023-01-20T02:17:43.774Z,4.16
2023-01-20T02:20:29.073Z,4.25
2023-01-20T02:23:08.131Z,4.10
2023-01-20T02:25:53.725Z,4.15
2023-01-20T02:28:26.254Z,4.18
2023-01-20T02:31:06.256Z,4.17
2023-01-20T02:33:35.661Z,4.16
2023-01-20T02:36:10.131Z,4.22
2023-01-20T02:38:48.075Z,3.90
2023-01-20T02:41:20.200Z,3.39
2023-01-20T02:43:51.959Z,3.53
2023-01-20T02:46:40.835Z,3.72
2023-01-20T02:49:30.546Z,3.89
2023-01-20T02:52:00.330Z,4.26
2023-01-20T02:54:29.540Z,4.00
2023-01-20T02:56:57.394Z,4.12
2023-01-20T02:59:26.704Z,3.37
2023-01-20T03:02:03.110Z,3.93
2023-01-20T03:04:35.063Z,4.10
2023-01-20T03:07:02.422Z,3.67
2023-01-20T03:09:37.439Z,3.73
2023-01-20T03:12:10.014Z,4.34
2023-01-20T03:14:37.040Z,4.64
2023-01-20T03:17:04.093Z,3.51
2023-01-20T03:19:30.786Z,4.28
2023-01-20T03:21:57.848Z,4.53
2023-01-20T03:24:25.991Z,4.24
2023-01-20T03:26:52.706Z,4.36
2023-01-20T03:29:19.205Z,4.23
2023-01-20T03:31:52.677Z,3.83
2023-01-20T03:34:21.290Z,3.84
2023-01-20T03:36:48.085Z,4.51
2023-01-20T03:39:14.813Z,4.49
2023-01-20T03:41:53.131Z,4.92
2023-01-20T03:44:25.515Z,4.51
2023-01-20T03:46:59.862Z,5.10
2023-01-20T03:49:29.791Z,5.36
2023-01-20T03:52:04.812Z,5.20
2023-01-20T03:54:36.237Z,4.94
2023-01-20T03:57:15.094Z,4.86
2023-01-20T03:59:43.451Z,4.87
2023-01-20T04:02:11.095Z,5.32
2023-01-20T04:04:40.605Z,5.09
2023-01-20T04:07:11.219Z,4.34
2023-01-20T04:09:42.819Z,4.23
2023-01-20T04:12:09.412Z,4.21
2023-01-20T04:14:36.475Z,4.85
2023-01-20T04:17:04.199Z,4.36
2023-01-20T04:19:31.319Z,3.98
2023-01-20T04:22:06.479Z,4.46
2023-01-20T04:24:45.662Z,4.41
2023-01-20T04:27:12.195Z,3.95
2023-01-20T04:29:39.043Z,4.22
2023-01-20T04:32:06.037Z,4.79
2023-01-20T04:34:33.104Z,4.14
2023-01-20T04:36:59.579Z,4.65
2023-01-20T04:39:26.057Z,5.20
2023-01-20T04:41:52.584Z,5.17
2023-01-20T04:44:19.119Z,4.52
2023-01-20T04:46:47.306Z,4.93
2023-01-20T04:49:14.844Z,4.55
2023-01-20T04:51:41.625Z,4.88
2023-01-20T04:54:08.288Z,5.45
2023-01-20T04:56:34.920Z,5.56
2023-01-20T04:59:01.448Z,5.40
2023-01-20T05:01:28.235Z,4.70
2023-01-20T05:03:54.787Z,5.19
2023-01-20T05:06:21.298Z,4.44
2023-01-20T05:08:47.802Z,4.57
2023-01-20T05:11:14.643Z,4.28
2023-01-20T05:13:41.309Z,4.57
2023-01-20T05:16:09.024Z,4.38
2023-01-20T05:18:36.096Z,4.02
2023-01-20T05:21:03.897Z,4.59
2023-01-20T05:23:30.844Z,4.67
2023-01-20T05:25:57.423Z,4.38
2023-01-20T05:28:24.036Z,4.27
2023-01-20T05:30:50.933Z,3.69
2023-01-20T05:33:17.531Z,3.79
2023-01-20T05:35:44.040Z,4.19
2023-01-20T05:38:10.587Z,3.89
2023-01-20T05:40:37.051Z,4.21
2023-01-20T05:43:03.622Z,4.65
2023-01-20T05:45:31.150Z,5.05
2023-01-20T05:47:58.716Z,5.04
2023-01-20T05:50:26.780Z,4.62
2023-01-20T05:52:53.936Z,4.71
2023-01-20T05:55:20.926Z,4.32
2023-01-20T05:57:47.522Z,4.02
2023-01-20T06:00:15.010Z,4.31
2023-01-20T06:02:41.635Z,5.11
2023-01-20T06:05:08.327Z,5.29
2023-01-20T06:07:34.899Z,5.03
2023-01-20T06:10:02.472Z,5.15
2023-01-20T06:12:29.098Z,5.17
2023-01-20T06:14:55.573Z,5.37
2023-01-20T06:17:22.123Z,4.89
2023-01-20T06:19:48.567Z,5.09
2023-01-20T06:22:15.595Z,5.03
2023-01-20T06:24:42.105Z,4.72
2023-01-20T06:27:09.518Z,4.75
2023-01-20T06:29:36.079Z,4.69
2023-01-20T06:32:02.859Z,4.92
2023-01-20T06:34:29.338Z,5.44
2023-01-20T06:36:56.902Z,5.57
2023-01-20T06:39:23.380Z,5.46
2023-01-20T06:41:49.810Z,5.60
2023-01-20T06:44:17.294Z,5.31
2023-01-20T06:46:44.117Z,5.52
2023-01-20T06:49:11.406Z,5.84
2023-01-20T06:51:37.867Z,5.70
2023-01-20T06:54:04.468Z,4.93
2023-01-20T06:56:31.155Z,5.57
2023-01-20T06:58:57.860Z,5.79
2023-01-20T07:01:29.999Z,5.63
2023-01-20T07:03:56.961Z,5.99
2023-01-20T07:06:38.368Z,5.70
2023-01-20T07:09:06.436Z,6.04
2023-01-20T07:11:35.080Z,5.92
2023-01-20T07:14:02.362Z,6.14
2023-01-20T07:16:28.944Z,6.03
2023-01-20T07:18:55.686Z,5.82
2023-01-20T07:21:24.589Z,5.79
2023-01-20T07:23:52.663Z,5.58
2023-01-20T07:26:21.773Z,5.77
2023-01-20T07:28:49.055Z,6.04
2023-01-20T07:31:21.716Z,5.40
2023-01-20T07:33:48.393Z,5.25
2023-01-20T07:36:16.354Z,5.24
2023-01-20T07:38:43.360Z,5.05
2023-01-20T07:41:15.756Z,4.33
2023-01-20T07:43:43.589Z,5.06
2023-01-20T07:46:10.677Z,4.93
2023-01-20T07:48:37.234Z,5.05
2023-01-20T07:51:08.874Z,5.25
2023-01-20T07:53:37.701Z,4.89
2023-01-20T07:56:10.804Z,5.82
2023-01-20T07:58:37.995Z,5.05
2023-01-20T08:01:13.132Z,5.40
2023-01-20T08:03:40.103Z,5.99
2023-01-20T08:06:09.757Z,6.10
2023-01-20T08:08:37.006Z,6.38
2023-01-20T08:11:04.308Z,6.60
2023-01-20T08:13:31.781Z,6.71
2023-01-20T08:16:06.091Z,6.79
2023-01-20T08:18:32.811Z,6.93
2023-01-20T08:20:59.919Z,6.67
2023-01-20T08:23:26.743Z,6.56
2023-01-20T08:26:05.251Z,5.72
2023-01-20T08:28:35.098Z,4.72
2023-01-20T08:31:10.387Z,5.38
2023-01-20T08:33:37.164Z,4.69
2023-01-20T08:36:15.732Z,5.11
2023-01-20T08:38:42.908Z,4.98
2023-01-20T08:41:14.655Z,5.22
2023-01-20T08:43:41.799Z,6.04
2023-01-20T08:46:11.224Z,5.26
2023-01-20T08:48:39.244Z,5.30
2023-01-20T08:51:14.216Z,5.02
2023-01-20T08:53:41.727Z,5.02
2023-01-20T08:56:09.644Z,4.71
2023-01-20T08:58:36.307Z,4.66
2023-01-20T09:01:08.361Z,5.33
2023-01-20T09:03:34.945Z,5.50
2023-01-20T09:06:03.188Z,4.82
2023-01-20T09:08:30.592Z,5.37
2023-01-20T09:11:05.891Z,5.44
2023-01-20T09:13:32.891Z,4.99
2023-01-20T09:15:59.408Z,5.19
2023-01-20T09:18:26.043Z,5.08
2023-01-20T09:20:52.766Z,5.18
2023-01-20T09:23:19.542Z,5.06
2023-01-20T09:25:46.316Z,4.75
2023-01-20T09:28:14.258Z,4.31
2023-01-20T09:30:42.694Z,5.57
2023-01-20T09:33:13.070Z,5.52
2023-01-20T09:35:40.008Z,5.49
2023-01-20T09:38:25.125Z,5.33
2023-01-20T09:41:33.038Z,4.89
2023-01-20T09:44:13.617Z,4.93
2023-01-20T09:47:21.806Z,5.31
2023-01-20T09:50:33.042Z,5.77
2023-01-20T09:53:18.429Z,6.53
2023-01-20T09:55:50.311Z,5.31
2023-01-20T09:58:30.644Z,5.27
2023-01-20T10:01:24.348Z,5.23
2023-01-20T10:03:56.546Z,5.87
2023-01-20T10:06:37.133Z,6.39
2023-01-20T10:09:21.521Z,6.82
2023-01-20T10:11:49.763Z,7.97
2023-01-20T10:14:30.084Z,7.25
2023-01-20T10:16:58.380Z,7.71
2023-01-20T10:19:33.130Z,5.99
2023-01-20T10:22:48.859Z,6.77
2023-01-20T10:25:22.928Z,8.45
2023-01-20T10:27:57.474Z,8.38
2023-01-20T10:30:26.739Z,6.71
2023-01-20T10:33:05.251Z,5.67
2023-01-20T10:35:36.903Z,6.41
2023-01-20T10:38:07.836Z,6.44
2023-01-20T10:40:41.336Z,5.44
2023-01-20T10:43:13.989Z,5.47
2023-01-20T10:45:48.644Z,4.88
2023-01-20T10:48:24.177Z,5.96
2023-01-20T10:50:58.682Z,6.04
2023-01-20T10:54:06.125Z,5.66
2023-01-20T10:56:44.252Z,6.42
2023-01-20T10:59:16.448Z,6.32
2023-01-20T11:01:45.841Z,6.72
2023-01-20T11:04:19.256Z,5.81
2023-01-20T11:06:49.533Z,5.81
2023-01-20T11:09:39.576Z,6.69
2023-01-20T11:12:27.552Z,6.33
2023-01-20T11:14:55.304Z,6.73
2023-01-20T11:17:21.960Z,6.49
2023-01-20T11:19:56.829Z,6.30
2023-01-20T11:22:33.439Z,6.21
2023-01-20T11:25:01.890Z,6.76
2023-01-20T11:27:33.450Z,7.44
2023-01-20T11:30:01.781Z,7.94
2023-01-20T11:32:29.563Z,7.59
2023-01-20T11:34:56.649Z,7.19
2023-01-20T11:37:25.984Z,7.64
2023-01-20T11:39:55.786Z,11.83
2023-01-20T11:42:24.970Z,14.34
2023-01-20T11:45:21.456Z,19.54
2023-01-20T11:48:16.132Z,22.72
2023-01-20T11:50:46.920Z,19.09
2023-01-20T11:53:16.062Z,14.54
2023-01-20T11:55:52.209Z,14.29
2023-01-20T11:58:24.190Z,14.21
2023-01-20T12:01:19.663Z,11.85
2023-01-20T12:03:46.283Z,11.43
2023-01-20T12:06:27.759Z,10.56
2023-01-20T12:09:12.339Z,9.88
2023-01-20T12:11:46.286Z,9.71
2023-01-20T12:14:20.975Z,9.98
2023-01-20T12:17:26.132Z,9.54
2023-01-20T12:20:23.869Z,8.75
2023-01-20T12:23:21.309Z,7.42
2023-01-20T12:26:00.539Z,6.89
2023-01-20T12:28:29.213Z,7.27
2023-01-20T12:30:59.611Z,6.75
2023-01-20T12:33:44.675Z,6.11
2023-01-20T12:36:36.585Z,7.07
2023-01-20T12:39:40.894Z,7.08
2023-01-20T12:42:10.406Z,6.84
2023-01-20T12:45:06.672Z,6.67
2023-01-20T12:47:54.776Z,6.76
2023-01-20T12:50:30.403Z,6.69
2023-01-20T12:52:59.868Z,6.81
2023-01-20T12:55:26.563Z,7.46
2023-01-20T12:58:17.801Z,7.62
2023-01-20T13:01:12.964Z,6.99
2023-01-20T13:03:58.258Z,7.00
2023-01-20T13:06:50.388Z,6.60
2023-01-20T13:10:07.580Z,7.01
2023-01-20T13:12:56.784Z,7.64
2023-01-20T13:15:37.420Z,7.59
2023-01-20T13:18:07.381Z,7.52
2023-01-20T13:20:35.270Z,7.60
2023-01-20T13:23:06.106Z,7.87
2023-01-20T13:25:34.240Z,8.06
2023-01-20T13:28:00.959Z,7.96
2023-01-20T13:30:47.830Z,8.65
2023-01-20T13:33:24.206Z,8.00
2023-01-20T13:35:51.132Z,8.18
2023-01-20T13:38:20.483Z,7.85
2023-01-20T13:40:50.151Z,7.42
2023-01-20T13:43:23.151Z,8.17
2023-01-20T13:46:09.706Z,7.98
2023-01-20T13:48:37.767Z,7.78
2023-01-20T13:51:16.811Z,8.49
2023-01-20T13:53:43.699Z,8.05
2023-01-20T13:56:29.905Z,8.40
2023-01-20T13:58:59.849Z,8.77
2023-01-20T14:01:27.786Z,8.40
2023-01-20T14:04:05.460Z,7.97
2023-01-20T14:06:35.954Z,7.86
2023-01-20T14:09:03.834Z,7.40
2023-01-20T14:11:31.340Z,6.92
2023-01-20T14:14:05.340Z,7.92
2023-01-20T14:16:35.025Z,8.03
2023-01-20T14:19:14.138Z,8.22
2023-01-20T14:21:42.584Z,8.52
2023-01-20T14:24:26.065Z,7.85
2023-01-20T14:27:06.366Z,7.67
2023-01-20T14:29:32.942Z,7.50
2023-01-20T14:31:59.598Z,7.77
2023-01-20T14:34:28.954Z,7.99
2023-01-20T14:36:56.746Z,7.85
2023-01-20T14:39:33.305Z,8.26
2023-01-20T14:42:01.262Z,8.23
2023-01-20T14:44:29.887Z,7.66
2023-01-20T14:46:58.859Z,7.99
2023-01-20T14:49:43.485Z,8.27
2023-01-20T14:52:19.147Z,8.29
2023-01-20T14:54:46.136Z,8.42
2023-01-20T14:57:20.603Z,8.21
2023-01-20T14:59:48.770Z,8.34
2023-01-20T15:02:35.008Z,8.36
2023-01-20T15:05:02.016Z,7.90
2023-01-20T15:07:28.699Z,7.93
2023-01-20T15:10:02.576Z,8.43
2023-01-20T15:12:33.914Z,8.37
2023-01-20T15:15:27.957Z,8.29
2023-01-20T15:18:04.516Z,8.37
2023-01-20T15:20:33.503Z,8.25
2023-01-20T15:23:00.726Z,8.18
2023-01-20T15:25:29.215Z,8.05
2023-01-20T15:27:56.734Z,8.25
2023-01-20T15:30:27.490Z,8.39
2023-01-20T15:32:54.809Z,8.03
2023-01-20T15:35:25.564Z,7.50
2023-01-20T15:37:52.791Z,7.28
2023-01-20T15:40:21.877Z,7.40
2023-01-20T15:42:50.452Z,6.55
2023-01-20T15:45:18.109Z,6.74
2023-01-20T15:47:46.185Z,6.15
2023-01-20T15:50:14.724Z,6.07
2023-01-20T15:52:41.796Z,5.71
2023-01-20T15:55:12.567Z,6.03
2023-01-20T15:57:39.215Z,5.66
2023-01-20T16:00:07.168Z,6.28
2023-01-20T16:02:33.672Z,6.56
2023-01-20T16:05:00.226Z,6.91
2023-01-20T16:07:27.914Z,7.04
2023-01-20T16:09:54.468Z,7.19
2023-01-20T16:12:21.171Z,7.28
2023-01-20T16:14:47.814Z,7.17
2023-01-20T16:17:17.084Z,7.06
2023-01-20T16:19:43.846Z,6.79
2023-01-20T16:22:10.558Z,7.10
2023-01-20T16:24:37.903Z,7.10
2023-01-20T16:27:14.210Z,7.05
2023-01-20T16:29:40.816Z,6.87
2023-01-20T16:32:07.354Z,6.90
2023-01-20T16:34:34.625Z,6.98
2023-01-20T16:37:01.543Z,6.84
2023-01-20T16:39:28.166Z,6.84
2023-01-20T16:41:54.651Z,6.80
2023-01-20T16:44:21.237Z,6.76
2023-01-20T16:46:47.731Z,6.71
2023-01-20T16:49:14.290Z,6.56
2023-01-20T16:51:41.291Z,6.52
2023-01-20T16:54:09.262Z,6.69
2023-01-20T16:56:36.135Z,6.69
2023-01-20T16:59:03.012Z,6.61
2023-01-20T17:01:30.242Z,6.47
2023-01-20T17:03:59.323Z,6.39
2023-01-20T17:06:27.811Z,6.23
2023-01-20T17:08:57.584Z,6.38
2023-01-20T17:11:29.779Z,6.31
2023-01-20T17:13:58.110Z,6.38
2023-01-20T17:16:26.206Z,6.30
2023-01-20T17:18:54.671Z,6.22
2023-01-20T17:21:22.700Z,6.29
2023-01-20T17:24:03.705Z,6.13
2023-01-20T17:26:31.019Z,6.18
2023-01-20T17:29:02.162Z,6.31
2023-01-20T17:31:29.027Z,6.37
2023-01-20T17:33:55.658Z,6.23
2023-01-20T17:36:22.182Z,6.10
2023-01-20T17:38:48.865Z,6.21
2023-01-20T17:41:15.516Z,6.10
2023-01-20T17:43:46.554Z,5.85
2023-01-20T17:46:22.379Z,5.78
2023-01-20T17:48:49.536Z,5.75
2023-01-20T17:51:18.601Z,5.94
2023-01-20T17:53:45.234Z,6.05
2023-01-20T17:56:13.895Z,6.07
2023-01-20T17:58:42.355Z,5.88
2023-01-20T18:01:17.928Z,6.02
2023-01-20T18:03:47.059Z,6.10
2023-01-20T18:06:15.712Z,5.80
2023-01-20T18:08:44.091Z,5.63
2023-01-20T18:11:15.170Z,5.57
2023-01-20T18:13:42.374Z,5.77
2023-01-20T18:16:11.643Z,5.84
2023-01-20T18:18:41.797Z,5.72
2023-01-20T18:21:13.558Z,5.62
2023-01-20T18:23:40.739Z,5.90
2023-01-20T18:26:08.573Z,5.79
2023-01-20T18:28:35.824Z,5.76
2023-01-20T18:31:08.496Z,5.75
2023-01-20T18:33:43.507Z,5.66
2023-01-20T18:36:15.906Z,5.93
2023-01-20T18:38:45.417Z,5.93
2023-01-20T18:41:14.945Z,5.94
2023-01-20T18:43:41.710Z,5.80
2023-01-20T18:46:09.389Z,5.83
2023-01-20T18:48:47.243Z,5.46
2023-01-20T18:51:15.614Z,5.58
2023-01-20T18:53:43.793Z,5.61
2023-01-20T18:56:12.627Z,5.62
2023-01-20T18:58:41.381Z,5.56
2023-01-20T19:01:11.360Z,5.56
2023-01-20T19:03:38.739Z,5.47
2023-01-20T19:06:11.077Z,5.38
2023-01-20T19:08:38.799Z,5.27
2023-01-20T19:11:08.857Z,5.41
2023-01-20T19:13:35.897Z,5.40
2023-01-20T19:16:02.511Z,5.16
2023-01-20T19:18:29.267Z,5.26
2023-01-20T19:20:56.095Z,5.37
2023-01-20T19:23:22.671Z,4.95
2023-01-20T19:25:59.582Z,4.99
2023-01-20T19:28:26.088Z,4.93
2023-01-20T19:30:52.684Z,4.89
2023-01-20T19:33:19.614Z,4.93
2023-01-20T19:35:46.126Z,4.94
2023-01-20T19:38:13.434Z,4.80
2023-01-20T19:40:39.979Z,4.92
2023-01-20T19:43:06.482Z,4.64
2023-01-20T19:45:45.438Z,4.71
2023-01-20T19:48:12.624Z,4.70
2023-01-20T19:50:39.160Z,4.64
2023-01-20T19:53:06.029Z,4.95
2023-01-20T19:55:32.530Z,4.75
2023-01-20T19:57:59.084Z,4.91
2023-01-20T20:00:25.644Z,4.84
2023-01-20T20:02:55.682Z,4.92
2023-01-20T20:05:22.229Z,4.75
2023-01-20T20:07:49.861Z,4.97
2023-01-20T20:10:18.406Z,4.94
2023-01-20T20:12:45.210Z,4.81
2023-01-20T20:15:11.867Z,4.88
2023-01-20T20:17:38.475Z,4.89
2023-01-20T20:20:05.685Z,4.76
2023-01-20T20:22:32.240Z,4.91
2023-01-20T20:24:58.890Z,4.90
2023-01-20T20:27:25.462Z,4.92
2023-01-20T20:29:54.493Z,4.71
2023-01-20T20:32:20.982Z,4.86
2023-01-20T20:34:47.731Z,4.72
2023-01-20T20:37:14.246Z,4.64
2023-01-20T20:39:40.775Z,4.74
2023-01-20T20:42:10.041Z,4.84
2023-01-20T20:44:36.535Z,4.75
2023-01-20T20:47:03.757Z,4.82
2023-01-20T20:49:31.895Z,4.74
2023-01-20T20:51:58.362Z,4.73
2023-01-20T20:54:25.191Z,4.68
2023-01-20T20:56:51.736Z,4.62
2023-01-20T20:59:22.909Z,4.52
2023-01-20T21:01:49.457Z,4.48
2023-01-20T21:04:16.023Z,4.70
2023-01-20T21:06:42.879Z,4.67
2023-01-20T21:09:09.708Z,4.62
2023-01-20T21:11:38.291Z,4.57
2023-01-20T21:14:05.156Z,4.49
2023-01-20T21:16:31.775Z,4.61
2023-01-20T21:18:59.281Z,4.40
2023-01-20T21:21:26.014Z,4.11
2023-01-20T21:23:54.748Z,3.98
2023-01-20T21:26:22.089Z,3.62
2023-01-20T21:28:51.679Z,3.89
2023-01-20T21:31:21.346Z,4.14
2023-01-20T21:33:53.136Z,3.99
2023-01-20T21:36:20.433Z,4.19
2023-01-20T21:38:47.013Z,4.29
2023-01-20T21:41:14.841Z,4.29
2023-01-20T21:44:01.462Z,3.91
2023-01-20T21:46:30.028Z,3.49
2023-01-20T21:49:15.112Z,3.97
2023-01-20T21:52:00.242Z,4.10
2023-01-20T21:54:31.287Z,4.14
2023-01-20T21:56:58.317Z,4.14
2023-01-20T21:59:25.304Z,4.15
2023-01-20T22:01:52.195Z,4.08
2023-01-20T22:04:19.200Z,4.06
2023-01-20T22:06:45.767Z,4.21
2023-01-20T22:09:12.706Z,4.13
2023-01-20T22:11:39.163Z,4.13
2023-01-20T22:14:05.779Z,4.15
2023-01-20T22:16:32.609Z,4.07
2023-01-20T22:18:59.209Z,4.04
2023-01-20T22:21:26.343Z,3.67
2023-01-20T22:23:53.801Z,3.62
2023-01-20T22:26:20.784Z,3.69
2023-01-20T22:28:47.432Z,3.97
2023-01-20T22:31:19.755Z,3.81
2023-01-20T22:33:50.705Z,3.65
2023-01-20T22:36:17.211Z,3.77
2023-01-20T22:38:45.360Z,3.87
2023-01-20T22:41:12.182Z,3.87
2023-01-20T22:43:40.735Z,4.00
2023-01-20T22:46:07.325Z,4.03
2023-01-20T22:48:34.132Z,4.13
2023-01-20T22:51:09.109Z,4.00
2023-01-20T22:53:36.056Z,3.74
2023-01-20T22:56:08.027Z,3.98
2023-01-20T22:58:34.578Z,4.05
2023-01-20T23:01:01.384Z,4.02
2023-01-20T23:03:28.565Z,3.38
2023-01-20T23:05:57.765Z,3.55
2023-01-20T23:08:29.329Z,2.98
2023-01-20T23:10:57.678Z,2.60
2023-01-20T23:13:24.337Z,2.66
2023-01-20T23:15:51.400Z,2.83
2023-01-20T23:18:19.291Z,3.09
2023-01-20T23:20:49.832Z,2.71
2023-01-20T23:23:16.735Z,2.75
2023-01-20T23:25:43.459Z,2.52
2023-01-20T23:28:10.442Z,3.06
2023-01-20T23:30:37.775Z,2.99
2023-01-20T23:33:04.654Z,3.18
2023-01-20T23:35:31.148Z,3.10
2023-01-20T23:37:57.587Z,3.41
2023-01-20T23:40:24.566Z,3.26
2023-01-20T23:42:51.956Z,3.48
2023-01-20T23:45:18.573Z,3.45
2023-01-20T23:47:45.057Z,2.63
2023-01-20T23:50:11.595Z,3.08
2023-01-20T23:52:38.101Z,2.94
2023-01-20T23:55:05.202Z,3.10
2023-01-20T23:57:31.682Z,3.31
2023-01-20T23:59:58.118Z,3.28
